Time;durP1;ratioP1;P1;durP2;ratioP2;P2;SDS_P1;SDS_P2;PMS_P1;PMS_P2;Temp;Humidity;BMP_temperature;BMP_pressure;BME280_temperature;BME280_humidity;BME280_pressure;Samples;Min_cycle;Max_cycle;Signal;HPM_P1;HPM_P2
2022/06/27 00:00:00;;;;;;;10.38;3.15;;;;;;;;;;9991267;28;20133;-63
2022/06/27 00:05:06;;;;;;;7.15;2.80;;;;;;;;;;9991777;28;20113;-63
2022/06/27 00:09:59;;;;;;;17.63;4.38;;;;;;;;;;9990991;28;20049;-63
2022/06/27 00:14:53;;;;;;;16.83;4.50;;;;;;;;;;9990833;28;20546;-63
2022/06/27 00:19:47;;;;;;;19.00;7.95;;;;;;;;;;9990252;28;20069;-62
2022/06/27 00:24:40;;;;;;;12.80;5.80;;;;;;;;;;9990594;28;20054;-63
2022/06/27 00:29:34;;;;;;;15.30;5.95;;;;;;;;;;9989257;28;20135;-63
2022/06/27 00:34:28;;;;;;;10.55;5.80;;;;;;;;;;9989289;28;20050;-63
2022/06/27 00:39:21;;;;;;;10.88;6.72;;;;;;;;;;9988921;28;20149;-63
2022/06/27 00:44:34;;;;;;;11.40;7.82;;;;;;;;;;9985674;28;20073;-62
2022/06/27 00:49:28;;;;;;;19.88;8.07;;;;;;;;;;9988064;28;20057;-62
2022/06/27 00:54:22;;;;;;;13.20;8.10;;;;;;;;;;9982877;28;20058;-63
2022/06/27 00:59:15;;;;;;;13.18;7.25;;;;;;;;;;9972449;28;20080;-62
2022/06/27 01:04:09;;;;;;;15.98;7.75;;;;;;;;;;9988852;28;20046;-63
2022/06/27 01:09:04;;;;;;;15.90;8.02;;;;;;;;;;9991667;28;20057;-63
2022/06/27 01:13:58;;;;;;;9.82;7.40;;;;;;;;;;9989185;28;20038;-63
2022/06/27 01:18:51;;;;;;;18.30;8.55;;;;;;;;;;9989285;28;20399;-63
2022/06/27 01:23:44;;;;;;;9.90;7.10;;;;;;;;;;9986953;28;20045;-62
2022/06/27 01:28:37;;;;;;;15.60;8.27;;;;;;;;;;9986913;28;20424;-64
2022/06/27 01:33:31;;;;;;;12.63;6.95;;;;;;;;;;9971052;28;20109;-64
2022/06/27 01:38:25;;;;;;;16.88;7.80;;;;;;;;;;9986836;28;20081;-63
2022/06/27 01:43:19;;;;;;;15.25;7.63;;;;;;;;;;9987829;28;20061;-65
2022/06/27 01:48:13;;;;;;;19.63;7.85;;;;;;;;;;9985645;28;20105;-64
2022/06/27 01:53:08;;;;;;;14.32;8.30;;;;;;;;;;9988241;28;20085;-63
2022/06/27 01:58:02;;;;;;;12.88;8.65;;;;;;;;;;9986656;28;20129;-63
2022/06/27 02:02:56;;;;;;;23.23;10.25;;;;;;;;;;9986535;28;20568;-63
2022/06/27 02:07:52;;;;;;;16.25;8.30;;;;;;;;;;9985985;28;20075;-63
2022/06/27 02:12:46;;;;;;;18.27;10.77;;;;;;;;;;10006677;28;20055;-63
2022/06/27 02:17:39;;;;;;;23.40;12.10;;;;;;;;;;9984671;28;20515;-63
2022/06/27 02:22:35;;;;;;;18.10;10.38;;;;;;;;;;9986041;28;20074;-63
2022/06/27 02:27:34;;;;;;;25.25;10.00;;;;;;;;;;9987580;28;20047;-63
2022/06/27 02:32:29;;;;;;;21.75;10.30;;;;;;;;;;9986594;28;20055;-63
2022/06/27 02:37:44;;;;;;;13.50;8.75;;;;;;;;;;9987040;28;20065;-63
2022/06/27 02:42:38;;;;;;;19.83;8.63;;;;;;;;;;9984123;28;20574;-63
2022/06/27 02:47:33;;;;;;;12.20;9.30;;;;;;;;;;9976370;28;20050;-63
2022/06/27 02:52:35;;;;;;;16.50;10.43;;;;;;;;;;9987149;28;20058;-63
2022/06/27 02:57:48;;;;;;;25.55;10.30;;;;;;;;;;9983797;28;20058;-62
2022/06/27 03:02:47;;;;;;;13.27;8.68;;;;;;;;;;9992137;28;20055;-63
2022/06/27 03:07:59;;;;;;;12.15;8.15;;;;;;;;;;9978747;28;20050;-63
2022/06/27 03:12:53;;;;;;;14.13;8.70;;;;;;;;;;9992678;28;20058;-63
2022/06/27 03:17:46;;;;;;;22.05;9.18;;;;;;;;;;9991664;28;20089;-63
2022/06/27 03:22:52;;;;;;;13.00;8.57;;;;;;;;;;9991815;28;20054;-63
2022/06/27 03:27:45;;;;;;;18.38;10.43;;;;;;;;;;9991506;28;20543;-63
2022/06/27 03:32:38;;;;;;;19.80;8.65;;;;;;;;;;9983919;28;20507;-62
2022/06/27 03:37:35;;;;;;;10.55;7.20;;;;;;;;;;9990883;28;20487;-63
2022/06/27 03:42:30;;;;;;;19.65;7.90;;;;;;;;;;9991128;28;20050;-63
2022/06/27 03:47:24;;;;;;;9.52;7.13;;;;;;;;;;9991062;28;20526;-63
2022/06/27 03:52:47;;;;;;;13.68;7.25;;;;;;;;;;9992081;28;20069;-63
2022/06/27 03:57:55;;;;;;;13.35;7.65;;;;;;;;;;9990732;28;20050;-63
2022/06/27 04:02:51;;;;;;;9.60;6.78;;;;;;;;;;9989518;28;20092;-63
2022/06/27 04:08:05;;;;;;;20.17;7.82;;;;;;;;;;9998393;28;20058;-63
2022/06/27 04:13:03;;;;;;;13.55;7.25;;;;;;;;;;9989746;28;20593;-63
2022/06/27 04:18:03;;;;;;;20.25;8.32;;;;;;;;;;9990299;28;20054;-63
2022/06/27 04:23:15;;;;;;;11.32;6.10;;;;;;;;;;9990473;28;20064;-63
2022/06/27 04:28:37;;;;;;;16.10;7.65;;;;;;;;;;9989239;28;20142;-63
2022/06/27 04:33:31;;;;;;;8.27;6.38;;;;;;;;;;9988879;28;20120;-63
2022/06/27 04:38:31;;;;;;;16.92;6.97;;;;;;;;;;9987739;28;20046;-63
2022/06/27 04:43:53;;;;;;;12.50;7.05;;;;;;;;;;9942496;28;20065;-63
2022/06/27 04:48:46;;;;;;;13.13;8.30;;;;;;;;;;9988645;28;20051;-63
2022/06/27 04:53:41;;;;;;;16.52;9.18;;;;;;;;;;9988331;28;20088;-63
2022/06/27 04:58:35;;;;;;;12.90;8.45;;;;;;;;;;9989513;28;20050;-64
2022/06/27 05:03:29;;;;;;;19.30;11.15;;;;;;;;;;9988358;28;20423;-63
2022/06/27 05:08:29;;;;;;;20.42;10.18;;;;;;;;;;9987620;28;20053;-63
2022/06/27 05:13:24;;;;;;;19.55;10.05;;;;;;;;;;9987503;28;20080;-63
2022/06/27 05:18:18;;;;;;;15.93;9.20;;;;;;;;;;9987508;28;20050;-63
2022/06/27 05:23:11;;;;;;;13.88;9.00;;;;;;;;;;9973406;28;20047;-62
2022/06/27 05:28:06;;;;;;;29.60;10.15;;;;;;;;;;9984592;28;20062;-62
2022/06/27 05:33:04;;;;;;;19.38;10.30;;;;;;;;;;9973930;28;20415;-61
2022/06/27 05:37:59;;;;;;;18.50;9.75;;;;;;;;;;9990940;28;20050;-62
2022/06/27 05:42:54;;;;;;;19.75;9.10;;;;;;;;;;10004216;28;20076;-63
2022/06/27 05:48:00;;;;;;;18.42;9.43;;;;;;;;;;9990890;28;20410;-62
2022/06/27 05:52:59;;;;;;;24.02;9.23;;;;;;;;;;9987671;28;20068;-62
2022/06/27 05:58:00;;;;;;;18.67;10.18;;;;;;;;;;9980891;28;20095;-63
2022/06/27 06:02:54;;;;;;;17.55;10.30;;;;;;;;;;9973570;28;20074;-68
2022/06/27 06:07:49;;;;;;;13.98;8.20;;;;;;;;;;9977564;28;20050;-65
2022/06/27 06:12:43;;;;;;;12.85;9.02;;;;;;;;;;9992829;28;20046;-66
2022/06/27 06:17:37;;;;;;;12.48;8.35;;;;;;;;;;9983939;28;20476;-67
2022/06/27 06:22:31;;;;;;;13.63;7.40;;;;;;;;;;9982740;28;20050;-67
2022/06/27 06:27:25;;;;;;;16.35;8.43;;;;;;;;;;9985727;28;20061;-66
2022/06/27 06:32:20;;;;;;;17.65;7.70;;;;;;;;;;10018985;28;20507;-66
2022/06/27 06:37:14;;;;;;;24.63;7.90;;;;;;;;;;9987624;28;20059;-66
2022/06/27 06:42:09;;;;;;;15.77;7.72;;;;;;;;;;9986879;28;20069;-66
2022/06/27 06:47:12;;;;;;;10.60;7.25;;;;;;;;;;9985551;28;20092;-65
2022/06/27 06:52:13;;;;;;;18.90;8.35;;;;;;;;;;9992841;28;20561;-66
2022/06/27 06:57:10;;;;;;;16.48;6.63;;;;;;;;;;9997369;28;20050;-66
2022/06/27 07:02:04;;;;;;;18.98;7.63;;;;;;;;;;9994895;28;20487;-65
2022/06/27 07:06:59;;;;;;;15.63;6.65;;;;;;;;;;10009929;28;20045;-66
2022/06/27 07:11:55;;;;;;;11.02;6.55;;;;;;;;;;10011309;28;20050;-61
2022/06/27 07:16:50;;;;;;;12.02;5.78;;;;;;;;;;10016656;28;20393;-62
2022/06/27 07:21:44;;;;;;;16.35;6.75;;;;;;;;;;10016664;28;20060;-62
2022/06/27 07:26:38;;;;;;;11.30;7.13;;;;;;;;;;10015940;28;20045;-62
2022/06/27 07:31:33;;;;;;;11.70;6.88;;;;;;;;;;10011335;28;20050;-62
2022/06/27 07:36:26;;;;;;;17.27;6.82;;;;;;;;;;10006345;28;20133;-62
2022/06/27 07:41:21;;;;;;;24.95;7.82;;;;;;;;;;9994853;28;20483;-62
2022/06/27 07:46:17;;;;;;;13.40;5.53;;;;;;;;;;10014326;28;20057;-62
2022/06/27 07:51:16;;;;;;;12.80;5.80;;;;;;;;;;10011561;28;20046;-62
2022/06/27 07:56:11;;;;;;;8.90;5.50;;;;;;;;;;10008289;28;20053;-63
2022/06/27 08:01:14;;;;;;;17.98;7.55;;;;;;;;;;10010451;28;20042;-63
2022/06/27 08:06:17;;;;;;;15.50;6.13;;;;;;;;;;10014911;28;20563;-61
2022/06/27 08:11:18;;;;;;;13.40;6.88;;;;;;;;;;10000571;28;20137;-63
2022/06/27 08:16:14;;;;;;;16.17;5.28;;;;;;;;;;10005285;28;20057;-63
2022/06/27 08:21:08;;;;;;;16.75;6.97;;;;;;;;;;10000031;28;20078;-62
2022/06/27 08:26:06;;;;;;;14.48;5.47;;;;;;;;;;10011289;28;20070;-63
2022/06/27 08:31:01;;;;;;;16.83;7.55;;;;;;;;;;10006120;28;20045;-62
2022/06/27 08:35:56;;;;;;;10.63;6.55;;;;;;;;;;10008957;28;20084;-64
2022/06/27 08:40:55;;;;;;;14.30;6.15;;;;;;;;;;10012887;28;20050;-62
2022/06/27 08:45:51;;;;;;;21.90;7.68;;;;;;;;;;10012749;28;20053;-62
2022/06/27 08:50:45;;;;;;;20.53;6.43;;;;;;;;;;10004087;28;20061;-62
2022/06/27 08:55:44;;;;;;;14.23;6.32;;;;;;;;;;9981357;28;20516;-62
2022/06/27 09:00:40;;;;;;;12.30;5.10;;;;;;;;;;9987788;28;20050;-63
2022/06/27 09:05:36;;;;;;;13.63;6.10;;;;;;;;;;9987984;28;20112;-63
2022/06/27 09:10:34;;;;;;;12.07;6.40;;;;;;;;;;9991106;28;20125;-63
2022/06/27 09:15:59;;;;;;;15.93;6.07;;;;;;;;;;9999250;28;20130;-63
2022/06/27 09:20:54;;;;;;;14.23;5.70;;;;;;;;;;10007643;28;20499;-62
2022/06/27 09:25:58;;;;;;;16.20;6.03;;;;;;;;;;10003820;28;20064;-62
2022/06/27 09:30:52;;;;;;;16.70;6.68;;;;;;;;;;9987607;28;20046;-62
2022/06/27 09:35:47;;;;;;;19.00;6.20;;;;;;;;;;10001874;28;20149;-61
2022/06/27 09:40:41;;;;;;;19.27;5.18;;;;;;;;;;10002286;28;20076;-61
2022/06/27 09:45:37;;;;;;;29.08;9.07;;;;;;;;;;10000580;28;20093;-62
2022/06/27 09:50:39;;;;;;;16.10;4.95;;;;;;;;;;9988969;28;20082;-62
2022/06/27 09:55:33;;;;;;;13.15;4.78;;;;;;;;;;9990683;28;20474;-62
2022/06/27 10:00:28;;;;;;;13.57;5.65;;;;;;;;;;9991054;28;20134;-62
2022/06/27 10:05:25;;;;;;;17.52;5.20;;;;;;;;;;9992127;28;20563;-62
2022/06/27 10:10:19;;;;;;;21.20;6.05;;;;;;;;;;10006599;28;20129;-62
2022/06/27 10:15:13;;;;;;;16.88;4.75;;;;;;;;;;9999081;28;20514;-62
2022/06/27 10:20:08;;;;;;;24.88;4.72;;;;;;;;;;10015465;28;20054;-61
2022/06/27 10:25:25;;;;;;;22.10;5.38;;;;;;;;;;10011056;28;20506;-63
2022/06/27 10:31:00;;;;;;;18.90;3.92;;;;;;;;;;9984692;28;20050;-63
2022/06/27 10:35:57;;;;;;;33.35;4.65;;;;;;;;;;9999302;28;20112;-63
2022/06/27 10:40:52;;;;;;;19.67;4.70;;;;;;;;;;9997674;28;20050;-61
2022/06/27 10:45:46;;;;;;;24.70;5.10;;;;;;;;;;9990823;28;20376;-60
2022/06/27 10:50:42;;;;;;;24.00;4.68;;;;;;;;;;10006605;28;20129;-60
2022/06/27 10:55:36;;;;;;;22.58;5.13;;;;;;;;;;10013686;28;20077;-59
2022/06/27 11:00:40;;;;;;;23.63;5.07;;;;;;;;;;10014868;28;20486;-59
2022/06/27 11:05:53;;;;;;;21.23;6.15;;;;;;;;;;9991671;28;20062;-59
2022/06/27 11:10:48;;;;;;;31.30;6.10;;;;;;;;;;9992477;28;20080;-60
2022/06/27 11:15:50;;;;;;;25.25;5.65;;;;;;;;;;9978759;28;20057;-60
2022/06/27 11:20:44;;;;;;;28.90;5.18;;;;;;;;;;9985290;28;20050;-60
2022/06/27 11:25:41;;;;;;;23.65;5.53;;;;;;;;;;10003202;28;20052;-61
2022/06/27 11:35:57;;;;;;;27.55;5.90;;;;;;;;;;9974417;28;20491;-59
2022/06/27 11:41:26;;;;;;;36.22;5.30;;;;;;;;;;10010092;28;20057;-60
2022/06/27 11:46:25;;;;;;;18.20;4.22;;;;;;;;;;9995008;28;20046;-60
2022/06/27 11:51:25;;;;;;;23.55;5.50;;;;;;;;;;9993143;28;20085;-60
2022/06/27 11:56:25;;;;;;;28.45;4.90;;;;;;;;;;9985534;28;20078;-60
2022/06/27 12:01:20;;;;;;;19.42;4.47;;;;;;;;;;9995877;28;20050;-60
2022/06/27 12:06:15;;;;;;;19.88;5.20;;;;;;;;;;10006669;28;20056;-61
2022/06/27 12:11:17;;;;;;;25.25;4.72;;;;;;;;;;9998835;28;20100;-60
2022/06/27 12:16:16;;;;;;;33.13;4.93;;;;;;;;;;9997587;28;20081;-60
2022/06/27 12:21:13;;;;;;;35.17;6.38;;;;;;;;;;9997924;28;20054;-60
2022/06/27 12:26:06;;;;;;;19.52;4.47;;;;;;;;;;9987735;28;20057;-60
2022/06/27 12:30:59;;;;;;;27.05;4.45;;;;;;;;;;9994059;28;20050;-61
2022/06/27 12:35:53;;;;;;;22.88;4.35;;;;;;;;;;9995348;28;20038;-61
2022/06/27 12:40:48;;;;;;;29.48;5.05;;;;;;;;;;9990243;28;20050;-64
2022/06/27 12:45:42;;;;;;;31.10;6.95;;;;;;;;;;9996921;28;20058;-65
2022/06/27 12:50:46;;;;;;;17.13;6.10;;;;;;;;;;9995061;28;20039;-64
2022/06/27 12:55:39;;;;;;;32.33;4.38;;;;;;;;;;10007146;28;20049;-65
2022/06/27 13:00:33;;;;;;;31.35;4.40;;;;;;;;;;9995943;28;20487;-64
2022/06/27 13:05:27;;;;;;;28.77;5.37;;;;;;;;;;9992407;28;20080;-65
2022/06/27 13:10:21;;;;;;;25.58;4.07;;;;;;;;;;9989818;28;20137;-65
2022/06/27 13:15:16;;;;;;;27.10;5.50;;;;;;;;;;9984483;28;20509;-65
2022/06/27 13:20:12;;;;;;;19.23;5.00;;;;;;;;;;9987106;28;20046;-65
2022/06/27 13:25:06;;;;;;;26.00;4.57;;;;;;;;;;9988055;28;20038;-65
2022/06/27 13:30:01;;;;;;;26.75;4.20;;;;;;;;;;9996921;28;20152;-66
2022/06/27 13:34:55;;;;;;;29.33;4.93;;;;;;;;;;9990524;28;20105;-66
2022/06/27 13:39:56;;;;;;;33.65;5.13;;;;;;;;;;9988518;28;20050;-65
2022/06/27 13:44:50;;;;;;;32.13;4.20;;;;;;;;;;9986854;28;20046;-65
2022/06/27 13:49:47;;;;;;;27.30;5.68;;;;;;;;;;9992060;28;20055;-65
2022/06/27 13:54:41;;;;;;;30.80;5.50;;;;;;;;;;9986447;28;20062;-65
2022/06/27 13:59:36;;;;;;;27.73;4.75;;;;;;;;;;9988199;28;20042;-65
2022/06/27 14:04:30;;;;;;;27.65;3.42;;;;;;;;;;9990352;28;20066;-64
2022/06/27 14:09:23;;;;;;;27.40;6.10;;;;;;;;;;9986828;28;20046;-64
2022/06/27 14:14:16;;;;;;;32.38;4.55;;;;;;;;;;9986796;28;20545;-64
2022/06/27 14:19:11;;;;;;;30.85;4.65;;;;;;;;;;9993290;28;20082;-65
2022/06/27 14:24:06;;;;;;;28.07;5.47;;;;;;;;;;9987962;28;20046;-64
2022/06/27 14:29:00;;;;;;;26.08;5.00;;;;;;;;;;9985048;28;20495;-64
2022/06/27 14:33:54;;;;;;;21.58;4.45;;;;;;;;;;9987122;28;20050;-64
2022/06/27 14:38:47;;;;;;;39.03;6.18;;;;;;;;;;9993349;28;20491;-65
2022/06/27 14:43:41;;;;;;;37.38;6.28;;;;;;;;;;9986712;28;20137;-64
2022/06/27 14:48:35;;;;;;;23.30;4.70;;;;;;;;;;9994441;28;20069;-64
2022/06/27 14:53:30;;;;;;;27.33;5.05;;;;;;;;;;10005183;28;20062;-64
2022/06/27 14:58:24;;;;;;;32.83;6.72;;;;;;;;;;10011218;28;20054;-64
2022/06/27 15:03:18;;;;;;;36.28;5.82;;;;;;;;;;9993249;28;20042;-64
2022/06/27 15:08:11;;;;;;;30.27;5.53;;;;;;;;;;10005244;28;20054;-63
2022/06/27 15:13:05;;;;;;;32.53;5.80;;;;;;;;;;9992474;28;20105;-63
2022/06/27 15:17:59;;;;;;;29.67;4.22;;;;;;;;;;9992392;28;20053;-62
2022/06/27 15:22:53;;;;;;;31.73;4.50;;;;;;;;;;9992563;28;20093;-62
2022/06/27 15:27:47;;;;;;;26.75;5.60;;;;;;;;;;9992313;28;20133;-62
2022/06/27 15:32:41;;;;;;;36.15;5.78;;;;;;;;;;9991889;28;20526;-62
2022/06/27 15:37:36;;;;;;;20.63;4.03;;;;;;;;;;9991872;28;20570;-63
2022/06/27 15:42:29;;;;;;;39.00;5.55;;;;;;;;;;9991359;28;20070;-62
2022/06/27 15:47:24;;;;;;;32.15;4.70;;;;;;;;;;9994853;28;20050;-62
2022/06/27 15:52:17;;;;;;;25.90;4.93;;;;;;;;;;9991124;28;20138;-62
2022/06/27 15:57:11;;;;;;;33.70;5.85;;;;;;;;;;9999790;28;20487;-62
2022/06/27 16:02:05;;;;;;;27.13;5.32;;;;;;;;;;10007440;28;20064;-62
2022/06/27 16:06:59;;;;;;;38.53;6.57;;;;;;;;;;9988828;28;20129;-62
2022/06/27 16:11:52;;;;;;;23.92;5.32;;;;;;;;;;10003112;28;20808;-62
2022/06/27 16:16:46;;;;;;;23.70;4.22;;;;;;;;;;9991244;28;20054;-64
2022/06/27 16:21:41;;;;;;;29.95;4.60;;;;;;;;;;9993357;28;20088;-66
2022/06/27 16:26:35;;;;;;;28.27;4.78;;;;;;;;;;9991701;28;20507;-66
2022/06/27 16:31:43;;;;;;;33.15;5.60;;;;;;;;;;9998035;28;20046;-65
2022/06/27 16:36:39;;;;;;;34.95;4.90;;;;;;;;;;9985494;28;20057;-65
2022/06/27 16:46:45;;;;;;;27.33;4.60;;;;;;;;;;10000245;28;20058;-65
2022/06/27 16:51:40;;;;;;;24.63;5.07;;;;;;;;;;10013893;28;20058;-68
2022/06/27 16:56:40;;;;;;;31.80;5.50;;;;;;;;;;10013039;28;20470;-67
2022/06/27 17:01:33;;;;;;;27.43;4.83;;;;;;;;;;9997879;28;20049;-66
2022/06/27 17:06:27;;;;;;;30.13;5.05;;;;;;;;;;9996278;28;20125;-67
2022/06/27 17:11:22;;;;;;;32.13;5.72;;;;;;;;;;9994558;28;20046;-68
2022/06/27 17:16:16;;;;;;;29.33;4.72;;;;;;;;;;10000148;28;20054;-68
2022/06/27 17:21:10;;;;;;;25.20;4.70;;;;;;;;;;10002181;28;20522;-66
2022/06/27 17:26:04;;;;;;;32.53;4.45;;;;;;;;;;10002581;28;20125;-67
2022/06/27 17:30:59;;;;;;;22.17;4.53;;;;;;;;;;10002003;28;20052;-67
2022/06/27 17:35:53;;;;;;;21.00;3.70;;;;;;;;;;10002317;28;20081;-67
2022/06/27 17:40:47;;;;;;;30.70;5.25;;;;;;;;;;10005186;28;20494;-67
2022/06/27 17:45:42;;;;;;;42.40;4.65;;;;;;;;;;10012341;28;20049;-66
2022/06/27 17:50:37;;;;;;;26.65;4.40;;;;;;;;;;10007028;28;20074;-68
2022/06/27 17:55:31;;;;;;;22.75;4.63;;;;;;;;;;10003890;28;20066;-71
2022/06/27 18:00:25;;;;;;;28.15;5.07;;;;;;;;;;9987961;28;20065;-69
2022/06/27 18:05:19;;;;;;;33.25;5.13;;;;;;;;;;9987057;28;20100;-69
2022/06/27 18:10:13;;;;;;;31.15;4.53;;;;;;;;;;10009754;28;20415;-68
2022/06/27 18:15:12;;;;;;;43.45;6.78;;;;;;;;;;9996737;28;20078;-64
2022/06/27 18:20:12;;;;;;;29.98;5.00;;;;;;;;;;9987599;28;20082;-65
2022/06/27 18:25:07;;;;;;;17.70;4.00;;;;;;;;;;9993490;28;20129;-65
2022/06/27 18:30:01;;;;;;;27.35;4.55;;;;;;;;;;10000007;28;20046;-65
2022/06/27 18:34:55;;;;;;;21.73;4.13;;;;;;;;;;9994402;28;20034;-65
2022/06/27 18:39:48;;;;;;;14.75;3.28;;;;;;;;;;9986113;28;20039;-64
2022/06/27 18:44:42;;;;;;;23.70;3.92;;;;;;;;;;9989100;28;20054;-65
2022/06/27 18:49:37;;;;;;;24.67;3.88;;;;;;;;;;9990129;28;20105;-65
2022/06/27 18:54:31;;;;;;;25.73;5.40;;;;;;;;;;9989709;28;20416;-65
2022/06/27 18:59:26;;;;;;;31.05;5.32;;;;;;;;;;9983961;28;20054;-65
2022/06/27 19:04:19;;;;;;;18.30;4.32;;;;;;;;;;9984943;28;20057;-64
2022/06/27 19:09:13;;;;;;;19.63;4.15;;;;;;;;;;10001067;28;20042;-64
2022/06/27 19:14:07;;;;;;;37.78;8.35;;;;;;;;;;10007308;28;20423;-65
2022/06/27 19:19:02;;;;;;;26.23;3.83;;;;;;;;;;10009251;28;20046;-65
2022/06/27 19:23:55;;;;;;;17.77;4.05;;;;;;;;;;10008001;28;20133;-64
2022/06/27 19:28:49;;;;;;;25.77;4.85;;;;;;;;;;10007663;28;20458;-64
2022/06/27 19:33:44;;;;;;;26.77;4.82;;;;;;;;;;10003129;28;20044;-65
2022/06/27 19:38:38;;;;;;;20.55;4.45;;;;;;;;;;10002251;28;20112;-63
2022/06/27 19:43:32;;;;;;;16.52;3.90;;;;;;;;;;10005010;28;20065;-64
2022/06/27 19:48:27;;;;;;;11.55;4.00;;;;;;;;;;9999450;28;20491;-72
2022/06/27 19:53:21;;;;;;;22.83;5.75;;;;;;;;;;9986168;28;20487;-63
2022/06/27 19:58:18;;;;;;;23.98;4.78;;;;;;;;;;9984174;28;20050;-63
2022/06/27 20:03:13;;;;;;;18.20;3.70;;;;;;;;;;9987490;28;20057;-63
2022/06/27 20:08:06;;;;;;;23.48;4.13;;;;;;;;;;9984995;28;20058;-63
2022/06/27 20:13:00;;;;;;;16.20;4.25;;;;;;;;;;9983263;28;20050;-66
2022/06/27 20:17:54;;;;;;;17.05;4.22;;;;;;;;;;9983247;28;20121;-62
2022/06/27 20:22:52;;;;;;;27.00;5.80;;;;;;;;;;9980458;28;20181;-63
2022/06/27 20:27:46;;;;;;;16.67;3.97;;;;;;;;;;9984363;28;20085;-63
2022/06/27 20:32:40;;;;;;;19.63;4.22;;;;;;;;;;9979734;28;20038;-63
2022/06/27 20:37:35;;;;;;;18.63;3.22;;;;;;;;;;9990647;28;20045;-63
2022/06/27 20:42:29;;;;;;;23.30;3.70;;;;;;;;;;10001703;28;20388;-64
2022/06/27 20:47:23;;;;;;;15.38;3.75;;;;;;;;;;10000761;28;20073;-64
2022/06/27 20:52:18;;;;;;;17.88;4.30;;;;;;;;;;9985074;28;20077;-63
2022/06/27 20:57:11;;;;;;;15.00;4.03;;;;;;;;;;9996162;28;20053;-62
2022/06/27 21:02:06;;;;;;;9.50;3.53;;;;;;;;;;9991663;28;20046;-62
2022/06/27 21:07:00;;;;;;;30.23;5.20;;;;;;;;;;9996135;28;20404;-62
2022/06/27 21:11:56;;;;;;;22.77;3.83;;;;;;;;;;9994257;28;20089;-61
2022/06/27 21:16:50;;;;;;;26.40;4.25;;;;;;;;;;10010115;28;20059;-63
2022/06/27 21:21:44;;;;;;;23.80;3.80;;;;;;;;;;10010763;28;20073;-62
2022/06/27 21:26:39;;;;;;;13.70;4.03;;;;;;;;;;10000633;28;20050;-62
2022/06/27 21:31:33;;;;;;;14.55;3.58;;;;;;;;;;10007689;28;20042;-61
2022/06/27 21:36:27;;;;;;;18.17;4.47;;;;;;;;;;9984279;28;20097;-62
2022/06/27 21:41:20;;;;;;;17.90;4.78;;;;;;;;;;9999497;28;20511;-62
2022/06/27 21:46:15;;;;;;;21.50;4.18;;;;;;;;;;9995133;28;20054;-62
2022/06/27 21:51:09;;;;;;;20.30;4.68;;;;;;;;;;9992839;28;20050;-61
2022/06/27 21:56:04;;;;;;;22.15;4.43;;;;;;;;;;9986215;28;20051;-61
2022/06/27 22:00:59;;;;;;;17.90;3.45;;;;;;;;;;9979710;28;20480;-61
2022/06/27 22:05:54;;;;;;;21.15;3.47;;;;;;;;;;9995498;28;20101;-62
2022/06/27 22:10:47;;;;;;;18.77;4.82;;;;;;;;;;9987677;28;20054;-62
2022/06/27 22:15:45;;;;;;;15.70;3.35;;;;;;;;;;9978963;28;20091;-62
2022/06/27 22:20:39;;;;;;;;;;;;;;;;;;9971688;28;20411;-62
2022/06/27 22:25:32;;;;;;;18.88;5.82;;;;;;;;;;9978689;28;19926;-62
2022/06/27 22:30:27;;;;;;;27.27;5.63;;;;;;;;;;9980015;28;20500;-61
2022/06/27 22:35:20;;;;;;;13.32;4.50;;;;;;;;;;9975353;28;20054;-62
2022/06/27 22:40:14;;;;;;;15.27;4.13;;;;;;;;;;9980388;28;20050;-62
2022/06/27 22:45:07;;;;;;;26.05;6.18;;;;;;;;;;9995853;28;20085;-62
2022/06/27 22:50:02;;;;;;;19.85;3.88;;;;;;;;;;9994375;28;20065;-62
2022/06/27 22:54:56;;;;;;;18.10;3.88;;;;;;;;;;9980559;28;20046;-63
2022/06/27 22:59:49;;;;;;;12.38;4.57;;;;;;;;;;9980662;28;20055;-63
2022/06/27 23:04:43;;;;;;;27.98;5.70;;;;;;;;;;9976762;28;20113;-63
2022/06/27 23:09:37;;;;;;;14.77;4.32;;;;;;;;;;9974386;28;20067;-62
2022/06/27 23:14:31;;;;;;;15.05;4.60;;;;;;;;;;9973163;28;20511;-63
2022/06/27 23:19:25;;;;;;;23.20;6.68;;;;;;;;;;9985541;28;20141;-62
2022/06/27 23:24:18;;;;;;;21.85;6.95;;;;;;;;;;9988525;28;20050;-62
2022/06/27 23:29:12;;;;;;;17.48;6.78;;;;;;;;;;9987362;28;20438;-62
2022/06/27 23:34:07;;;;;;;23.92;6.68;;;;;;;;;;9992460;28;20419;-62
2022/06/27 23:39:00;;;;;;;15.05;4.70;;;;;;;;;;9990264;28;20076;-62
2022/06/27 23:43:55;;;;;;;22.85;6.57;;;;;;;;;;9989219;28;20042;-62
2022/06/27 23:48:50;;;;;;;20.52;5.88;;;;;;;;;;9991826;28;20047;-62
2022/06/27 23:53:44;;;;;;;21.15;5.25;;;;;;;;;;9992787;28;20137;-62
2022/06/27 23:58:38;;;;;;;26.25;5.93;;;;;;;;;;9987192;28;20058;-62
